createdAt,value
2023-03-26T00:02:08.661Z,10.90
2023-03-26T00:04:55.384Z,11.90
2023-03-26T00:07:41.824Z,9.80
2023-03-26T00:10:28.642Z,9.30
2023-03-26T00:13:14.934Z,6.20
2023-03-26T00:16:01.887Z,8.50
2023-03-26T00:18:48.392Z,8.90
2023-03-26T00:21:34.566Z,11.90
2023-03-26T00:24:21.206Z,11.60
2023-03-26T00:27:08.305Z,12.00
2023-03-26T00:29:55.896Z,10.50
2023-03-26T00:32:43.316Z,7.90
2023-03-26T00:35:29.792Z,8.00
2023-03-26T00:38:17.227Z,6.40
2023-03-26T00:41:05.352Z,9.40
2023-03-26T00:43:55.929Z,9.60
2023-03-26T00:46:42.050Z,9.30
2023-03-26T00:49:30.177Z,9.10
2023-03-26T00:52:23.057Z,8.90
2023-03-26T00:55:09.723Z,6.40
2023-03-26T00:57:55.732Z,6.20
2023-03-26T01:04:55.035Z,5.50
2023-03-26T01:08:43.625Z,7.30
2023-03-26T01:12:04.688Z,5.20
2023-03-26T01:15:54.960Z,2.80
2023-03-26T01:23:43.624Z,3.30
2023-03-26T01:27:02.092Z,4.00
2023-03-26T01:30:35.768Z,4.00
2023-03-26T01:33:56.064Z,4.50
2023-03-26T01:37:29.687Z,3.50
2023-03-26T01:40:24.417Z,5.80
2023-03-26T01:44:11.868Z,3.70
2023-03-26T01:47:33.569Z,8.70
2023-03-26T01:51:02.311Z,4.90
2023-03-26T01:54:20.787Z,6.10
2023-03-26T01:57:47.817Z,4.10
2023-03-26T02:01:15.069Z,15.80
2023-03-26T02:05:02.688Z,5.90
2023-03-26T02:08:52.497Z,6.00
2023-03-26T02:12:14.014Z,5.10
2023-03-26T02:15:24.693Z,5.90
2023-03-26T02:18:45.635Z,7.10
2023-03-26T02:22:36.182Z,12.50
2023-03-26T02:26:01.900Z,7.30
2023-03-26T02:29:27.428Z,5.60
2023-03-26T02:33:21.636Z,6.80
2023-03-26T02:37:00.744Z,3.70
2023-03-26T02:40:28.707Z,5.50
2023-03-26T02:43:59.478Z,6.50
2023-03-26T02:48:14.680Z,5.90
2023-03-26T02:51:45.432Z,3.20
2023-03-26T02:55:04.112Z,10.60
2023-03-26T02:58:36.528Z,6.10
2023-03-26T03:02:44.308Z,7.40
2023-03-26T03:06:21.500Z,6.00
2023-03-26T03:09:57.244Z,4.90
2023-03-26T03:13:21.201Z,3.70
2023-03-26T03:16:38.195Z,3.80
2023-03-26T03:22:50.649Z,9.40
2023-03-26T03:26:27.392Z,5.50
2023-03-26T03:29:36.081Z,8.30
2023-03-26T03:33:13.888Z,5.20
2023-03-26T03:36:31.054Z,4.00
2023-03-26T03:40:36.994Z,3.80
2023-03-26T03:43:43.350Z,4.10
2023-03-26T03:47:27.752Z,2.80
2023-03-26T03:50:41.224Z,3.20
2023-03-26T03:54:56.844Z,5.00
2023-03-26T03:58:45.822Z,5.10
2023-03-26T04:02:21.329Z,3.50
2023-03-26T04:05:15.437Z,5.60
2023-03-26T04:08:27.920Z,3.60
2023-03-26T04:11:39.931Z,4.60
2023-03-26T04:15:40.817Z,6.60
2023-03-26T04:19:08.618Z,5.60
2023-03-26T04:22:03.300Z,5.80
2023-03-26T04:25:34.146Z,6.50
2023-03-26T04:28:56.923Z,6.70
2023-03-26T04:32:38.544Z,5.60
2023-03-26T04:36:01.513Z,5.30
2023-03-26T04:39:41.614Z,8.60
2023-03-26T04:43:22.957Z,9.30
2023-03-26T04:46:57.026Z,7.80
2023-03-26T04:50:36.214Z,5.40
2023-03-26T04:58:17.320Z,6.20
2023-03-26T05:02:00.569Z,7.00
2023-03-26T05:13:33.798Z,6.10
2023-03-26T05:17:50.091Z,6.00
2023-03-26T05:22:09.577Z,7.90
2023-03-26T05:26:18.434Z,8.00
2023-03-26T05:30:46.809Z,5.00
2023-03-26T05:39:15.714Z,6.00
2023-03-26T05:43:21.863Z,16.70
2023-03-26T05:47:34.586Z,8.20
2023-03-26T05:51:20.644Z,5.70
2023-03-26T05:55:17.619Z,6.90
2023-03-26T05:59:20.140Z,17.60
2023-03-26T06:03:25.565Z,9.00
2023-03-26T06:07:27.444Z,7.60
2023-03-26T06:11:18.651Z,8.80
2023-03-26T06:15:13.438Z,6.00
2023-03-26T06:18:56.641Z,5.00
2023-03-26T06:23:02.376Z,7.20
2023-03-26T06:31:07.342Z,5.20
2023-03-26T06:34:39.062Z,5.00
2023-03-26T06:38:15.680Z,2.60
2023-03-26T06:41:51.806Z,4.30
2023-03-26T06:46:04.429Z,5.90
2023-03-26T06:49:14.178Z,6.10
2023-03-26T06:53:10.561Z,8.50
2023-03-26T06:56:21.008Z,9.70
2023-03-26T06:59:56.151Z,14.80
2023-03-26T07:03:31.853Z,12.10
2023-03-26T07:07:02.583Z,7.40
2023-03-26T07:10:56.411Z,21.20
2023-03-26T07:14:12.839Z,52.60
2023-03-26T07:17:20.880Z,31.90
2023-03-26T07:24:49.543Z,37.40
2023-03-26T07:28:34.486Z,24.30
2023-03-26T07:32:34.604Z,17.80
2023-03-26T07:36:45.365Z,21.70
2023-03-26T07:40:55.607Z,13.00
2023-03-26T07:44:42.368Z,10.10
2023-03-26T07:48:51.826Z,7.00
2023-03-26T07:51:58.502Z,11.80
2023-03-26T07:55:22.979Z,6.70
2023-03-26T07:59:02.048Z,7.40
2023-03-26T08:02:34.335Z,6.80
2023-03-26T08:05:32.253Z,5.80
2023-03-26T08:09:02.119Z,7.90
2023-03-26T08:12:14.232Z,9.20
2023-03-26T08:15:27.789Z,7.00
2023-03-26T08:18:20.384Z,4.70
2023-03-26T08:21:15.171Z,6.90
2023-03-26T08:24:03.021Z,6.50
2023-03-26T08:26:58.536Z,11.40
2023-03-26T08:30:10.349Z,14.40
2023-03-26T08:33:19.058Z,14.50
2023-03-26T08:36:11.889Z,11.10
2023-03-26T08:39:04.125Z,16.20
2023-03-26T08:42:42.631Z,8.30
2023-03-26T08:45:50.831Z,6.80
2023-03-26T08:49:17.388Z,4.70
2023-03-26T08:52:30.168Z,10.30
2023-03-26T08:55:20.919Z,17.10
2023-03-26T08:58:30.282Z,7.40
2023-03-26T09:01:16.796Z,3.30
2023-03-26T09:04:15.112Z,6.30
2023-03-26T09:07:20.920Z,4.10
2023-03-26T09:10:29.736Z,5.60
2023-03-26T09:13:36.116Z,4.90
2023-03-26T09:17:02.773Z,4.70
2023-03-26T09:19:56.504Z,4.20
2023-03-26T09:23:01.884Z,2.50
2023-03-26T09:25:54.481Z,6.60
2023-03-26T09:28:47.290Z,5.80
2023-03-26T09:31:43.890Z,12.00
2023-03-26T09:34:42.486Z,37.20
2023-03-26T09:37:57.101Z,28.40
2023-03-26T09:41:06.736Z,7.20
2023-03-26T09:44:03.736Z,2.70
2023-03-26T09:47:01.103Z,4.20
2023-03-26T09:50:02.857Z,2.70
2023-03-26T09:52:57.473Z,1.50
2023-03-26T09:56:08.886Z,4.20
2023-03-26T09:59:23.141Z,3.60
2023-03-26T10:02:45.904Z,10.20
2023-03-26T10:06:15.284Z,3.30
2023-03-26T10:09:38.355Z,17.40
2023-03-26T10:12:33.531Z,5.30
2023-03-26T10:15:25.306Z,12.60
2023-03-26T10:18:27.235Z,8.10
2023-03-26T10:21:44.420Z,5.30
2023-03-26T10:27:25.410Z,4.60
2023-03-26T10:30:23.857Z,8.20
2023-03-26T10:33:17.637Z,10.10
2023-03-26T10:36:13.415Z,12.30
2023-03-26T10:41:58.809Z,13.90
2023-03-26T10:44:58.060Z,14.60
2023-03-26T10:47:48.707Z,8.20
2023-03-26T10:50:46.949Z,10.60
2023-03-26T10:53:49.833Z,9.50
2023-03-26T10:56:56.795Z,8.30
2023-03-26T10:59:43.665Z,11.90
2023-03-26T11:02:32.605Z,10.10
2023-03-26T11:05:27.451Z,10.50
2023-03-26T11:08:48.992Z,7.00
2023-03-26T11:12:31.586Z,6.80
2023-03-26T11:15:42.404Z,5.60
2023-03-26T11:18:36.214Z,5.00
2023-03-26T11:21:25.854Z,7.00
2023-03-26T11:24:35.702Z,5.20
2023-03-26T11:27:26.219Z,4.90
2023-03-26T11:30:18.065Z,7.80
2023-03-26T11:33:06.051Z,4.80
2023-03-26T11:35:55.179Z,7.70
2023-03-26T11:38:44.017Z,4.90
2023-03-26T11:41:42.672Z,3.40
2023-03-26T11:45:09.432Z,3.50
2023-03-26T11:48:06.088Z,4.50
2023-03-26T11:51:14.881Z,2.20
2023-03-26T11:54:02.914Z,2.30
2023-03-26T11:57:08.663Z,2.40
2023-03-26T12:00:17.186Z,3.30
2023-03-26T12:03:03.585Z,3.20
2023-03-26T12:05:58.508Z,3.50
2023-03-26T12:08:53.342Z,4.80
2023-03-26T12:11:44.486Z,5.20
2023-03-26T12:14:32.416Z,3.10
2023-03-26T12:17:31.411Z,4.00
2023-03-26T12:20:38.245Z,5.00
2023-03-26T12:23:38.933Z,6.40
2023-03-26T12:26:35.984Z,7.00
2023-03-26T12:29:34.935Z,3.60
2023-03-26T12:32:45.794Z,2.40
2023-03-26T12:35:36.882Z,3.60
2023-03-26T12:38:32.411Z,3.50
2023-03-26T12:44:42.259Z,4.60
2023-03-26T12:44:46.701Z,5.00
2023-03-26T12:47:57.449Z,4.10
2023-03-26T12:50:59.248Z,7.10
2023-03-26T12:54:09.876Z,2.70
2023-03-26T12:57:11.283Z,4.30
2023-03-26T13:00:10.518Z,2.80
2023-03-26T13:03:00.549Z,3.00
2023-03-26T13:05:57.805Z,4.20
2023-03-26T13:09:07.369Z,2.50
2023-03-26T13:12:02.743Z,2.70
2023-03-26T13:15:13.117Z,2.00
2023-03-26T13:18:20.908Z,3.90
2023-03-26T13:21:16.379Z,4.10
2023-03-26T13:24:21.107Z,4.60
2023-03-26T13:27:29.035Z,1.90
2023-03-26T13:30:32.383Z,1.70
2023-03-26T13:33:31.272Z,2.10
2023-03-26T13:36:31.543Z,1.50
2023-03-26T13:39:23.366Z,2.40
2023-03-26T13:42:22.539Z,3.30
2023-03-26T13:45:27.054Z,8.90
2023-03-26T13:48:18.428Z,8.80
2023-03-26T13:51:11.097Z,9.00
2023-03-26T13:54:06.552Z,6.00
2023-03-26T13:57:23.750Z,9.90
2023-03-26T14:01:04.037Z,8.60
2023-03-26T14:04:48.831Z,14.70
2023-03-26T14:08:03.868Z,4.60
2023-03-26T14:11:02.844Z,6.80
2023-03-26T14:14:39.223Z,11.20
2023-03-26T14:18:05.004Z,10.00
2023-03-26T14:21:53.686Z,7.00
2023-03-26T14:24:58.355Z,16.70
2023-03-26T14:28:06.860Z,8.40
2023-03-26T14:31:30.233Z,13.10
2023-03-26T14:34:45.088Z,5.00
2023-03-26T14:37:53.377Z,9.90
2023-03-26T14:40:53.958Z,7.60
2023-03-26T14:44:05.445Z,6.20
2023-03-26T14:47:14.333Z,6.30
2023-03-26T14:50:23.066Z,11.00
2023-03-26T14:53:20.071Z,13.10
2023-03-26T14:56:22.256Z,14.30
2023-03-26T14:59:20.212Z,11.40
2023-03-26T15:02:24.360Z,15.10
2023-03-26T15:05:23.618Z,10.60
2023-03-26T15:08:33.895Z,15.40
2023-03-26T15:11:29.613Z,9.70
2023-03-26T15:15:06.327Z,3.80
2023-03-26T15:19:12.918Z,5.00
2023-03-26T15:22:13.175Z,5.70
2023-03-26T15:25:31.749Z,10.80
2023-03-26T15:29:20.759Z,6.30
2023-03-26T15:36:57.083Z,6.50
2023-03-26T16:30:17.050Z,6.70
2023-03-26T16:51:58.147Z,13.40
2023-03-26T17:45:50.168Z,17.30
2023-03-26T17:51:08.798Z,49.60
2023-03-26T17:59:43.921Z,151.90
2023-03-26T18:03:31.484Z,95.30
2023-03-26T18:07:03.042Z,92.50
2023-03-26T18:10:33.690Z,106.60
2023-03-26T18:21:47.668Z,113.50
2023-03-26T18:25:33.218Z,102.30
2023-03-26T18:32:05.718Z,30.20
2023-03-26T18:35:06.502Z,31.20
2023-03-26T18:39:45.598Z,23.20
2023-03-26T18:43:01.284Z,24.60
2023-03-26T18:45:54.537Z,42.30
2023-03-26T18:48:44.404Z,29.60
2023-03-26T18:51:43.237Z,27.70
2023-03-26T18:54:38.384Z,48.50
2023-03-26T18:57:30.003Z,51.20
2023-03-26T19:00:30.116Z,44.70
2023-03-26T19:03:43.785Z,46.10
2023-03-26T19:07:03.374Z,28.30
2023-03-26T19:13:00.545Z,34.20
2023-03-26T19:16:07.239Z,33.60
2023-03-26T19:19:18.411Z,44.40
2023-03-26T19:22:21.234Z,53.50
2023-03-26T19:25:33.808Z,56.70
2023-03-26T19:28:28.540Z,44.50
2023-03-26T19:31:57.424Z,57.00
2023-03-26T19:35:11.206Z,64.60
2023-03-26T19:38:25.251Z,55.90
2023-03-26T19:41:25.584Z,46.90
2023-03-26T19:44:21.370Z,44.70
2023-03-26T19:47:32.117Z,52.00
2023-03-26T19:50:32.638Z,60.00
2023-03-26T19:53:30.419Z,68.70
2023-03-26T19:56:33.087Z,65.70
2023-03-26T19:59:39.861Z,78.00
2023-03-26T20:02:33.190Z,70.70
2023-03-26T20:06:08.861Z,87.80
2023-03-26T20:09:01.601Z,103.60
2023-03-26T20:12:09.079Z,99.80
2023-03-26T20:15:06.470Z,133.40
2023-03-26T20:18:22.749Z,114.20
2023-03-26T20:21:31.586Z,145.40
2023-03-26T20:24:31.669Z,132.00
2023-03-26T20:28:05.517Z,78.10
2023-03-26T20:35:35.952Z,91.00
2023-03-26T20:42:17.130Z,64.10
2023-03-26T20:46:00.500Z,41.10
2023-03-26T20:49:30.379Z,43.30
2023-03-26T20:53:21.310Z,37.20
2023-03-26T20:57:08.294Z,40.00
2023-03-26T21:00:37.470Z,31.10
2023-03-26T21:04:17.204Z,28.30
2023-03-26T21:07:17.572Z,26.40
2023-03-26T21:10:42.200Z,22.00
2023-03-26T21:14:39.790Z,12.00
2023-03-26T21:17:57.264Z,15.60
2023-03-26T21:21:17.915Z,18.20
2023-03-26T21:24:15.038Z,11.70
2023-03-26T21:28:09.443Z,11.70
2023-03-26T21:31:35.069Z,10.80
2023-03-26T21:34:24.867Z,6.80
2023-03-26T21:37:15.883Z,8.40
2023-03-26T21:40:30.881Z,7.00
2023-03-26T21:43:47.447Z,11.30
2023-03-26T21:46:41.812Z,6.10
2023-03-26T21:49:38.420Z,7.40
2023-03-26T21:52:29.713Z,10.10
2023-03-26T21:56:10.641Z,16.30
2023-03-26T21:59:43.860Z,10.60
2023-03-26T22:02:53.574Z,9.10
2023-03-26T22:10:21.106Z,6.20
2023-03-26T22:13:25.219Z,8.00
2023-03-26T22:19:52.005Z,6.90
2023-03-26T22:23:06.437Z,8.20
2023-03-26T22:27:25.915Z,6.00
2023-03-26T22:34:56.587Z,19.90
2023-03-26T22:38:15.757Z,9.60
2023-03-26T22:41:33.270Z,11.50
2023-03-26T22:48:13.484Z,8.50
2023-03-26T22:55:29.252Z,8.00
2023-03-26T23:02:56.086Z,20.30
2023-03-26T23:06:32.387Z,15.60
2023-03-26T23:14:09.574Z,12.90
2023-03-26T23:17:13.901Z,9.30
2023-03-26T23:20:01.751Z,10.80
2023-03-26T23:22:58.737Z,18.10
2023-03-26T23:26:26.755Z,13.90
2023-03-26T23:30:31.616Z,9.30
2023-03-26T23:35:53.461Z,12.70
2023-03-26T23:42:11.641Z,11.80
2023-03-26T23:53:16.908Z,18.20
2023-03-26T23:57:20.798Z,26.10
